sensor_id;sensor_type;location;lat;lon;timestamp;pressure;altitude;pressure_sealevel;temperature;humidity
74329;BME280;62749;51.982;5.916;2023-04-01T00:01:35;98840.81;;;9.95;97.37
74329;BME280;62749;51.982;5.916;2023-04-01T00:04:04;98841.06;;;9.92;97.47
74329;BME280;62749;51.982;5.916;2023-04-01T00:06:33;98831.34;;;9.93;97.75
74329;BME280;62749;51.982;5.916;2023-04-01T00:09:05;98838.50;;;9.91;98.02
74329;BME280;62749;51.982;5.916;2023-04-01T00:11:35;98838.19;;;9.95;97.86
74329;BME280;62749;51.982;5.916;2023-04-01T00:14:05;98840.97;;;9.81;97.77
74329;BME280;62749;51.982;5.916;2023-04-01T00:16:34;98848.66;;;9.84;98.17
74329;BME280;62749;51.982;5.916;2023-04-01T00:19:03;98857.31;;;9.86;98.31
74329;BME280;62749;51.982;5.916;2023-04-01T00:21:33;98849.94;;;9.78;98.07
74329;BME280;62749;51.982;5.916;2023-04-01T00:24:05;98848.31;;;9.89;98.31
74329;BME280;62749;51.982;5.916;2023-04-01T00:26:35;98855.28;;;9.90;98.31
74329;BME280;62749;51.982;5.916;2023-04-01T00:29:04;98848.25;;;9.90;98.28
74329;BME280;62749;51.982;5.916;2023-04-01T00:31:34;98843.59;;;9.94;98.20
74329;BME280;62749;51.982;5.916;2023-04-01T00:34:03;98850.56;;;9.82;98.30
74329;BME280;62749;51.982;5.916;2023-04-01T00:36:33;98847.38;;;9.90;98.27
74329;BME280;62749;51.982;5.916;2023-04-01T00:39:05;98854.97;;;9.94;98.24
74329;BME280;62749;51.982;5.916;2023-04-01T00:41:34;98844.00;;;9.88;98.33
74329;BME280;62749;51.982;5.916;2023-04-01T00:44:25;98851.19;;;9.86;98.53
74329;BME280;62749;51.982;5.916;2023-04-01T00:46:56;98854.88;;;9.96;98.46
74329;BME280;62749;51.982;5.916;2023-04-01T00:49:31;98853.81;;;9.98;98.34
74329;BME280;62749;51.982;5.916;2023-04-01T00:52:05;98855.38;;;10.01;98.16
74329;BME280;62749;51.982;5.916;2023-04-01T00:54:41;98850.44;;;9.96;98.05
74329;BME280;62749;51.982;5.916;2023-04-01T00:57:17;98855.16;;;10.04;98.11
74329;BME280;62749;51.982;5.916;2023-04-01T00:59:52;98853.94;;;9.97;97.98
74329;BME280;62749;51.982;5.916;2023-04-01T01:02:23;98855.16;;;10.04;97.92
74329;BME280;62749;51.982;5.916;2023-04-01T01:04:53;98852.19;;;10.09;97.92
74329;BME280;62749;51.982;5.916;2023-04-01T01:07:30;98846.44;;;10.04;97.73
74329;BME280;62749;51.982;5.916;2023-04-01T01:13:18;98864.44;;;10.10;97.68
74329;BME280;62749;51.982;5.916;2023-04-01T01:15:58;98856.53;;;10.10;97.31
74329;BME280;62749;51.982;5.916;2023-04-01T01:18:38;98858.13;;;10.12;97.45
74329;BME280;62749;51.982;5.916;2023-04-01T01:21:38;98864.22;;;10.13;97.28
74329;BME280;62749;51.982;5.916;2023-04-01T01:24:30;98867.41;;;10.18;97.44
74329;BME280;62749;51.982;5.916;2023-04-01T01:27:09;98864.97;;;10.15;97.44
74329;BME280;62749;51.982;5.916;2023-04-01T01:30:13;98868.88;;;10.09;97.83
74329;BME280;62749;51.982;5.916;2023-04-01T01:33:18;98866.13;;;10.11;97.78
74329;BME280;62749;51.982;5.916;2023-04-01T01:35:57;98867.00;;;10.11;97.71
74329;BME280;62749;51.982;5.916;2023-04-01T01:38:33;98865.50;;;10.07;97.56
74329;BME280;62749;51.982;5.916;2023-04-01T01:41:06;98879.84;;;10.16;97.53
74329;BME280;62749;51.982;5.916;2023-04-01T01:43:40;98877.31;;;10.14;97.61
74329;BME280;62749;51.982;5.916;2023-04-01T01:46:13;98880.06;;;10.13;97.72
74329;BME280;62749;51.982;5.916;2023-04-01T01:48:45;98873.72;;;10.16;97.43
74329;BME280;62749;51.982;5.916;2023-04-01T01:51:21;98874.03;;;10.11;97.66
74329;BME280;62749;51.982;5.916;2023-04-01T01:53:51;98868.88;;;10.09;98.05
74329;BME280;62749;51.982;5.916;2023-04-01T01:56:26;98881.13;;;10.10;98.03
74329;BME280;62749;51.982;5.916;2023-04-01T01:59:02;98887.78;;;10.03;98.03
74329;BME280;62749;51.982;5.916;2023-04-01T02:01:37;98881.88;;;10.00;98.25
74329;BME280;62749;51.982;5.916;2023-04-01T02:04:09;98895.19;;;9.98;98.19
74329;BME280;62749;51.982;5.916;2023-04-01T02:06:47;98890.03;;;9.83;98.30
74329;BME280;62749;51.982;5.916;2023-04-01T02:09:19;98891.91;;;9.81;98.33
74329;BME280;62749;51.982;5.916;2023-04-01T02:11:52;98892.53;;;9.85;98.37
74329;BME280;62749;51.982;5.916;2023-04-01T02:14:28;98892.13;;;9.78;97.99
74329;BME280;62749;51.982;5.916;2023-04-01T02:17:04;98902.16;;;9.73;98.02
74329;BME280;62749;51.982;5.916;2023-04-01T02:19:39;98904.78;;;9.73;98.32
74329;BME280;62749;51.982;5.916;2023-04-01T02:22:15;98898.88;;;9.70;98.59
74329;BME280;62749;51.982;5.916;2023-04-01T02:24:49;98909.41;;;9.70;98.83
74329;BME280;62749;51.982;5.916;2023-04-01T02:27:20;98905.75;;;9.72;99.02
74329;BME280;62749;51.982;5.916;2023-04-01T02:29:50;98899.94;;;9.67;99.03
74329;BME280;62749;51.982;5.916;2023-04-01T02:32:20;98904.13;;;9.70;99.10
74329;BME280;62749;51.982;5.916;2023-04-01T02:34:50;98897.72;;;9.61;99.30
74329;BME280;62749;51.982;5.916;2023-04-01T02:37:23;98908.47;;;9.71;99.13
74329;BME280;62749;51.982;5.916;2023-04-01T02:39:52;98910.69;;;9.64;99.16
74329;BME280;62749;51.982;5.916;2023-04-01T02:42:22;98906.16;;;9.66;99.19
74329;BME280;62749;51.982;5.916;2023-04-01T02:44:51;98907.63;;;9.70;99.14
74329;BME280;62749;51.982;5.916;2023-04-01T02:47:21;98912.91;;;9.70;99.02
74329;BME280;62749;51.982;5.916;2023-04-01T02:49:50;98917.25;;;9.71;98.88
74329;BME280;62749;51.982;5.916;2023-04-01T02:52:27;98903.63;;;9.64;99.11
74329;BME280;62749;51.982;5.916;2023-04-01T02:54:57;98919.53;;;9.63;99.20
74329;BME280;62749;51.982;5.916;2023-04-01T02:57:27;98927.44;;;9.63;99.17
74329;BME280;62749;51.982;5.916;2023-04-01T02:59:56;98922.41;;;9.60;99.04
74329;BME280;62749;51.982;5.916;2023-04-01T03:02:26;98913.66;;;9.72;99.11
74329;BME280;62749;51.982;5.916;2023-04-01T03:04:55;98919.00;;;9.71;99.34
74329;BME280;62749;51.982;5.916;2023-04-01T03:07:27;98917.03;;;9.74;98.76
74329;BME280;62749;51.982;5.916;2023-04-01T03:09:56;98925.16;;;9.71;98.56
74329;BME280;62749;51.982;5.916;2023-04-01T03:12:26;98925.88;;;9.73;98.86
74329;BME280;62749;51.982;5.916;2023-04-01T03:14:55;98922.50;;;9.71;98.80
74329;BME280;62749;51.982;5.916;2023-04-01T03:17:24;98927.88;;;9.70;98.76
74329;BME280;62749;51.982;5.916;2023-04-01T03:19:54;98922.00;;;9.79;98.78
74329;BME280;62749;51.982;5.916;2023-04-01T03:22:23;98929.25;;;9.62;98.60
74329;BME280;62749;51.982;5.916;2023-04-01T03:24:55;98929.78;;;9.67;98.96
74329;BME280;62749;51.982;5.916;2023-04-01T03:27:25;98925.56;;;9.65;98.86
74329;BME280;62749;51.982;5.916;2023-04-01T03:29:54;98913.97;;;9.67;98.61
74329;BME280;62749;51.982;5.916;2023-04-01T03:32:23;98928.81;;;9.68;98.39
74329;BME280;62749;51.982;5.916;2023-04-01T03:34:53;98929.44;;;9.59;98.64
74329;BME280;62749;51.982;5.916;2023-04-01T03:37:23;98938.22;;;9.60;98.93
74329;BME280;62749;51.982;5.916;2023-04-01T03:39:55;98929.88;;;9.66;98.79
74329;BME280;62749;51.982;5.916;2023-04-01T03:42:24;98936.00;;;9.66;98.83
74329;BME280;62749;51.982;5.916;2023-04-01T03:44:53;98934.53;;;9.62;98.55
74329;BME280;62749;51.982;5.916;2023-04-01T03:47:23;98925.63;;;9.50;98.75
74329;BME280;62749;51.982;5.916;2023-04-01T03:49:52;98938.09;;;9.61;98.87
74329;BME280;62749;51.982;5.916;2023-04-01T03:52:22;98945.50;;;9.69;98.84
74329;BME280;62749;51.982;5.916;2023-04-01T03:54:51;98943.06;;;9.66;98.50
74329;BME280;62749;51.982;5.916;2023-04-01T03:57:23;98944.00;;;9.65;98.50
74329;BME280;62749;51.982;5.916;2023-04-01T03:59:53;98947.59;;;9.64;98.53
74329;BME280;62749;51.982;5.916;2023-04-01T04:02:22;98942.63;;;9.59;98.51
74329;BME280;62749;51.982;5.916;2023-04-01T04:04:52;98943.38;;;9.61;98.58
74329;BME280;62749;51.982;5.916;2023-04-01T04:07:21;98940.72;;;9.48;98.47
74329;BME280;62749;51.982;5.916;2023-04-01T04:09:50;98950.53;;;9.46;98.68
74329;BME280;62749;51.982;5.916;2023-04-01T04:12:22;98948.09;;;9.43;98.69
74329;BME280;62749;51.982;5.916;2023-04-01T04:14:52;98942.38;;;9.36;98.85
74329;BME280;62749;51.982;5.916;2023-04-01T04:17:21;98952.31;;;9.46;99.02
74329;BME280;62749;51.982;5.916;2023-04-01T04:19:50;98948.41;;;9.39;98.93
74329;BME280;62749;51.982;5.916;2023-04-01T04:22:20;98952.94;;;9.49;98.94
74329;BME280;62749;51.982;5.916;2023-04-01T04:24:49;98958.09;;;9.38;98.77
74329;BME280;62749;51.982;5.916;2023-04-01T04:27:19;98962.09;;;9.44;99.11
74329;BME280;62749;51.982;5.916;2023-04-01T04:29:51;98953.69;;;9.39;99.29
74329;BME280;62749;51.982;5.916;2023-04-01T04:32:20;98954.94;;;9.33;99.32
74329;BME280;62749;51.982;5.916;2023-04-01T04:34:50;98960.00;;;9.49;99.35
74329;BME280;62749;51.982;5.916;2023-04-01T04:37:20;98960.63;;;9.40;99.22
74329;BME280;62749;51.982;5.916;2023-04-01T04:39:49;98949.88;;;9.43;99.69
74329;BME280;62749;51.982;5.916;2023-04-01T04:42:19;98969.31;;;9.55;99.42
74329;BME280;62749;51.982;5.916;2023-04-01T04:44:51;98960.00;;;9.49;99.25
74329;BME280;62749;51.982;5.916;2023-04-01T04:47:20;98971.31;;;9.51;99.39
74329;BME280;62749;51.982;5.916;2023-04-01T04:49:49;98969.94;;;9.45;99.19
74329;BME280;62749;51.982;5.916;2023-04-01T04:52:19;98973.31;;;9.47;99.48
74329;BME280;62749;51.982;5.916;2023-04-01T04:54:48;98964.75;;;9.44;99.42
74329;BME280;62749;51.982;5.916;2023-04-01T04:57:17;98971.19;;;9.40;99.49
74329;BME280;62749;51.982;5.916;2023-04-01T04:59:47;98978.94;;;9.28;100.00
74329;BME280;62749;51.982;5.916;2023-04-01T05:02:19;98985.50;;;9.35;99.93
74329;BME280;62749;51.982;5.916;2023-04-01T05:04:48;98982.47;;;9.42;99.86
74329;BME280;62749;51.982;5.916;2023-04-01T05:07:17;98981.50;;;9.43;99.86
74329;BME280;62749;51.982;5.916;2023-04-01T05:09:47;98982.25;;;9.45;99.99
74329;BME280;62749;51.982;5.916;2023-04-01T05:12:16;98987.44;;;9.46;100.00
74329;BME280;62749;51.982;5.916;2023-04-01T05:14:46;98993.28;;;9.37;100.00
74329;BME280;62749;51.982;5.916;2023-04-01T05:17:15;98989.13;;;9.47;100.00
74329;BME280;62749;51.982;5.916;2023-04-01T05:19:47;99004.19;;;9.45;100.00
74329;BME280;62749;51.982;5.916;2023-04-01T05:22:16;98998.59;;;9.50;100.00
74329;BME280;62749;51.982;5.916;2023-04-01T05:24:46;99001.69;;;9.57;100.00
74329;BME280;62749;51.982;5.916;2023-04-01T05:27:16;99003.81;;;9.64;99.73
74329;BME280;62749;51.982;5.916;2023-04-01T05:29:45;99000.53;;;9.61;99.78
74329;BME280;62749;51.982;5.916;2023-04-01T05:32:15;99005.38;;;9.67;99.79
74329;BME280;62749;51.982;5.916;2023-04-01T05:34:50;99016.13;;;9.64;99.80
74329;BME280;62749;51.982;5.916;2023-04-01T05:37:19;99024.28;;;9.61;99.82
74329;BME280;62749;51.982;5.916;2023-04-01T05:39:49;99018.56;;;9.67;99.95
74329;BME280;62749;51.982;5.916;2023-04-01T05:42:18;99019.22;;;9.71;99.75
74329;BME280;62749;51.982;5.916;2023-04-01T05:44:48;99028.50;;;9.76;99.64
74329;BME280;62749;51.982;5.916;2023-04-01T05:47:17;99027.56;;;9.77;99.47
74329;BME280;62749;51.982;5.916;2023-04-01T05:49:49;99035.47;;;9.77;99.48
74329;BME280;62749;51.982;5.916;2023-04-01T05:52:18;99031.56;;;9.83;99.38
74329;BME280;62749;51.982;5.916;2023-04-01T05:54:48;99043.06;;;9.82;99.30
74329;BME280;62749;51.982;5.916;2023-04-01T05:57:17;99040.34;;;9.83;99.22
74329;BME280;62749;51.982;5.916;2023-04-01T05:59:47;99010.66;;;9.54;98.99
74329;BME280;62749;51.982;5.916;2023-04-01T06:02:17;99053.72;;;9.80;99.09
74329;BME280;62749;51.982;5.916;2023-04-01T06:05:01;99055.22;;;9.85;99.11
74329;BME280;62749;51.982;5.916;2023-04-01T06:07:31;99059.75;;;9.82;99.07
74329;BME280;62749;51.982;5.916;2023-04-01T06:10:00;99067.47;;;9.86;98.73
74329;BME280;62749;51.982;5.916;2023-04-01T06:12:41;99061.44;;;9.83;98.64
74329;BME280;62749;51.982;5.916;2023-04-01T06:15:24;99075.28;;;9.87;98.71
74329;BME280;62749;51.982;5.916;2023-04-01T06:21:07;99081.28;;;9.89;98.53
74329;BME280;62749;51.982;5.916;2023-04-01T06:23:52;99092.22;;;9.83;98.21
74329;BME280;62749;51.982;5.916;2023-04-01T06:26:35;99092.59;;;9.91;98.09
74329;BME280;62749;51.982;5.916;2023-04-01T06:29:27;99100.19;;;9.96;98.20
74329;BME280;62749;51.982;5.916;2023-04-01T06:32:18;99099.44;;;9.94;97.67
74329;BME280;62749;51.982;5.916;2023-04-01T06:35:23;99105.91;;;10.03;97.71
74329;BME280;62749;51.982;5.916;2023-04-01T06:44:12;99114.88;;;10.00;97.76
74329;BME280;62749;51.982;5.916;2023-04-01T06:46:47;99117.09;;;9.93;96.99
74329;BME280;62749;51.982;5.916;2023-04-01T06:49:33;99118.66;;;9.96;97.43
74329;BME280;62749;51.982;5.916;2023-04-01T06:52:19;99122.06;;;9.98;97.80
74329;BME280;62749;51.982;5.916;2023-04-01T06:55:02;99138.31;;;10.05;97.74
74329;BME280;62749;51.982;5.916;2023-04-01T06:57:46;99144.97;;;10.10;98.06
74329;BME280;62749;51.982;5.916;2023-04-01T07:00:25;99136.31;;;10.08;98.10
74329;BME280;62749;51.982;5.916;2023-04-01T07:03:05;99144.97;;;10.10;97.97
74329;BME280;62749;51.982;5.916;2023-04-01T07:05:37;99143.28;;;10.09;98.14
74329;BME280;62749;51.982;5.916;2023-04-01T07:08:12;99146.25;;;10.18;97.96
74329;BME280;62749;51.982;5.916;2023-04-01T07:10:50;99155.97;;;10.17;97.96
74329;BME280;62749;51.982;5.916;2023-04-01T07:13:25;99153.22;;;10.19;98.10
74329;BME280;62749;51.982;5.916;2023-04-01T07:16:07;99170.56;;;10.23;98.15
74329;BME280;62749;51.982;5.916;2023-04-01T07:18:47;99165.28;;;10.23;98.18
74329;BME280;62749;51.982;5.916;2023-04-01T07:21:25;99170.78;;;10.33;98.18
74329;BME280;62749;51.982;5.916;2023-04-01T07:24:01;99172.56;;;10.32;98.21
74329;BME280;62749;51.982;5.916;2023-04-01T07:26:35;99178.91;;;10.29;98.18
74329;BME280;62749;51.982;5.916;2023-04-01T07:29:05;99177.72;;;10.34;98.31
74329;BME280;62749;51.982;5.916;2023-04-01T07:35:13;99195.75;;;10.41;98.61
74329;BME280;62749;51.982;5.916;2023-04-01T07:37:58;99196.59;;;10.55;98.48
74329;BME280;62749;51.982;5.916;2023-04-01T07:40:39;99199.38;;;10.53;98.08
74329;BME280;62749;51.982;5.916;2023-04-01T07:43:31;99198.50;;;10.53;98.21
74329;BME280;62749;51.982;5.916;2023-04-01T07:46:11;99198.66;;;10.64;98.22
74329;BME280;62749;51.982;5.916;2023-04-01T07:48:54;99206.25;;;10.69;97.99
74329;BME280;62749;51.982;5.916;2023-04-01T07:51:34;99214.50;;;10.77;97.79
74329;BME280;62749;51.982;5.916;2023-04-01T07:54:12;99210.78;;;10.80;97.40
74329;BME280;62749;51.982;5.916;2023-04-01T07:56:54;99225.38;;;10.85;97.78
74329;BME280;62749;51.982;5.916;2023-04-01T07:59:40;99220.84;;;10.87;97.79
74329;BME280;62749;51.982;5.916;2023-04-01T08:02:25;99229.38;;;10.91;97.52
74329;BME280;62749;51.982;5.916;2023-04-01T08:05:04;99223.91;;;10.94;97.64
74329;BME280;62749;51.982;5.916;2023-04-01T08:07:46;99225.28;;;11.00;97.99
74329;BME280;62749;51.982;5.916;2023-04-01T08:10:23;99234.16;;;11.12;97.81
74329;BME280;62749;51.982;5.916;2023-04-01T08:13:05;99232.69;;;11.08;97.67
74329;BME280;62749;51.982;5.916;2023-04-01T08:15:51;99242.19;;;10.97;97.23
74329;BME280;62749;51.982;5.916;2023-04-01T08:18:33;99246.41;;;10.87;97.40
74329;BME280;62749;51.982;5.916;2023-04-01T08:21:13;99248.13;;;10.88;97.93
74329;BME280;62749;51.982;5.916;2023-04-01T08:23:48;99252.53;;;10.87;97.50
74329;BME280;62749;51.982;5.916;2023-04-01T08:26:29;99251.28;;;10.93;97.70
74329;BME280;62749;51.982;5.916;2023-04-01T08:29:09;99263.13;;;11.00;97.90
74329;BME280;62749;51.982;5.916;2023-04-01T08:32:01;99266.72;;;10.99;97.63
74329;BME280;62749;51.982;5.916;2023-04-01T08:34:36;99270.84;;;11.16;97.62
74329;BME280;62749;51.982;5.916;2023-04-01T08:37:11;99267.13;;;11.19;97.76
74329;BME280;62749;51.982;5.916;2023-04-01T08:39:47;99274.97;;;11.08;97.02
74329;BME280;62749;51.982;5.916;2023-04-01T08:42:37;99275.59;;;10.98;97.19
74329;BME280;62749;51.982;5.916;2023-04-01T08:45:40;99285.44;;;11.09;97.38
74329;BME280;62749;51.982;5.916;2023-04-01T08:48:37;99285.66;;;11.06;97.58
74329;BME280;62749;51.982;5.916;2023-04-01T08:51:39;99280.75;;;10.87;97.17
74329;BME280;62749;51.982;5.916;2023-04-01T08:54:35;99298.31;;;10.88;97.26
74329;BME280;62749;51.982;5.916;2023-04-01T08:57:16;99303.59;;;11.01;97.39
74329;BME280;62749;51.982;5.916;2023-04-01T09:00:00;99303.59;;;10.88;97.31
74329;BME280;62749;51.982;5.916;2023-04-01T09:02:54;99306.56;;;10.83;97.32
74329;BME280;62749;51.982;5.916;2023-04-01T09:05:56;99310.03;;;10.84;97.17
74329;BME280;62749;51.982;5.916;2023-04-01T09:08:43;99314.25;;;10.86;97.25
74329;BME280;62749;51.982;5.916;2023-04-01T09:11:28;99316.13;;;10.71;96.87
74329;BME280;62749;51.982;5.916;2023-04-01T09:14:25;99325.25;;;10.80;97.51
74329;BME280;62749;51.982;5.916;2023-04-01T09:17:18;99320.53;;;10.98;97.99
74329;BME280;62749;51.982;5.916;2023-04-01T09:20:17;99327.50;;;11.12;97.64
74329;BME280;62749;51.982;5.916;2023-04-01T09:23:10;99333.84;;;11.10;97.37
74329;BME280;62749;51.982;5.916;2023-04-01T09:25:58;99338.75;;;11.16;97.61
74329;BME280;62749;51.982;5.916;2023-04-01T09:28:44;99341.38;;;11.29;97.56
74329;BME280;62749;51.982;5.916;2023-04-01T09:31:33;99338.84;;;11.27;96.96
74329;BME280;62749;51.982;5.916;2023-04-01T09:37:18;99355.03;;;11.35;96.97
74329;BME280;62749;51.982;5.916;2023-04-01T09:40:09;99342.13;;;11.31;96.42
74329;BME280;62749;51.982;5.916;2023-04-01T09:42:48;99358.41;;;11.38;96.40
74329;BME280;62749;51.982;5.916;2023-04-01T09:45:37;99360.00;;;11.27;95.88
74329;BME280;62749;51.982;5.916;2023-04-01T09:48:24;99375.81;;;11.14;95.89
74329;BME280;62749;51.982;5.916;2023-04-01T09:51:17;99370.44;;;11.16;96.40
74329;BME280;62749;51.982;5.916;2023-04-01T09:54:09;99370.59;;;10.87;96.56
74329;BME280;62749;51.982;5.916;2023-04-01T10:00:18;99386.63;;;10.84;97.22
74329;BME280;62749;51.982;5.916;2023-04-01T10:03:26;99387.59;;;10.83;97.35
74329;BME280;62749;51.982;5.916;2023-04-01T10:06:42;99392.75;;;10.84;97.10
74329;BME280;62749;51.982;5.916;2023-04-01T10:09:44;99397.53;;;10.92;97.58
74329;BME280;62749;51.982;5.916;2023-04-01T10:12:49;99399.97;;;10.95;97.31
74329;BME280;62749;51.982;5.916;2023-04-01T10:15:48;99409.22;;;11.02;97.24
74329;BME280;62749;51.982;5.916;2023-04-01T10:21:51;99414.34;;;10.91;97.18
74329;BME280;62749;51.982;5.916;2023-04-01T10:24:42;99413.84;;;10.99;97.27
74329;BME280;62749;51.982;5.916;2023-04-01T10:27:38;99414.28;;;11.05;97.43
74329;BME280;62749;51.982;5.916;2023-04-01T10:30:44;99409.03;;;11.18;97.29
74329;BME280;62749;51.982;5.916;2023-04-01T10:34:00;99420.13;;;11.24;97.14
74329;BME280;62749;51.982;5.916;2023-04-01T10:36:48;99428.50;;;11.30;96.64
74329;BME280;62749;51.982;5.916;2023-04-01T10:42:51;99422.19;;;11.46;96.36
74329;BME280;62749;51.982;5.916;2023-04-01T10:52:21;99431.31;;;11.55;95.83
74329;BME280;62749;51.982;5.916;2023-04-01T10:55:14;99438.06;;;11.46;96.24
74329;BME280;62749;51.982;5.916;2023-04-01T10:58:27;99429.19;;;11.47;96.40
74329;BME280;62749;51.982;5.916;2023-04-01T11:01:33;99438.63;;;11.51;96.44
74329;BME280;62749;51.982;5.916;2023-04-01T11:08:15;99442.09;;;11.51;96.62
74329;BME280;62749;51.982;5.916;2023-04-01T11:11:28;99444.72;;;11.51;96.60
74329;BME280;62749;51.982;5.916;2023-04-01T11:26:32;99463.69;;;11.58;97.03
74329;BME280;62749;51.982;5.916;2023-04-01T11:29:23;99462.09;;;11.56;97.27
74329;BME280;62749;51.982;5.916;2023-04-01T11:32:11;99466.06;;;11.35;95.48
74329;BME280;62749;51.982;5.916;2023-04-01T11:35:00;99468.38;;;11.27;95.57
74329;BME280;62749;51.982;5.916;2023-04-01T11:37:40;99464.44;;;11.20;95.29
74329;BME280;62749;51.982;5.916;2023-04-01T11:40:26;99476.56;;;11.10;95.25
74329;BME280;62749;51.982;5.916;2023-04-01T11:43:08;99480.03;;;11.10;95.87
74329;BME280;62749;51.982;5.916;2023-04-01T11:45:48;99473.72;;;11.13;96.29
74329;BME280;62749;51.982;5.916;2023-04-01T11:48:32;99483.13;;;11.17;96.83
74329;BME280;62749;51.982;5.916;2023-04-01T11:51:27;99476.81;;;11.19;97.28
74329;BME280;62749;51.982;5.916;2023-04-01T11:54:12;99492.50;;;11.23;97.37
74329;BME280;62749;51.982;5.916;2023-04-01T11:57:06;99485.63;;;11.05;97.18
74329;BME280;62749;51.982;5.916;2023-04-01T12:00:13;99505.50;;;10.98;97.41
74329;BME280;62749;51.982;5.916;2023-04-01T12:03:10;99502.53;;;11.03;98.04
74329;BME280;62749;51.982;5.916;2023-04-01T12:05:53;99509.53;;;11.04;98.09
74329;BME280;62749;51.982;5.916;2023-04-01T12:08:40;99513.22;;;11.01;98.01
74329;BME280;62749;51.982;5.916;2023-04-01T12:11:21;99521.78;;;11.05;98.39
74329;BME280;62749;51.982;5.916;2023-04-01T12:14:03;99525.28;;;11.05;98.20
74329;BME280;62749;51.982;5.916;2023-04-01T12:16:49;99518.50;;;11.01;97.88
74329;BME280;62749;51.982;5.916;2023-04-01T12:19:31;99525.53;;;11.15;98.12
74329;BME280;62749;51.982;5.916;2023-04-01T12:22:23;99530.22;;;10.97;98.05
74329;BME280;62749;51.982;5.916;2023-04-01T12:28:06;99537.50;;;10.94;98.32
74329;BME280;62749;51.982;5.916;2023-04-01T12:31:00;99541.84;;;10.95;98.56
74329;BME280;62749;51.982;5.916;2023-04-01T12:33:48;99549.84;;;10.93;98.67
74329;BME280;62749;51.982;5.916;2023-04-01T12:36:40;99555.22;;;11.06;98.75
74329;BME280;62749;51.982;5.916;2023-04-01T12:39:37;99557.22;;;11.02;98.25
74329;BME280;62749;51.982;5.916;2023-04-01T12:42:27;99564.09;;;11.05;98.20
74329;BME280;62749;51.982;5.916;2023-04-01T12:45:23;99560.69;;;11.03;98.25
74329;BME280;62749;51.982;5.916;2023-04-01T12:48:27;99567.19;;;11.12;98.44
74329;BME280;62749;51.982;5.916;2023-04-01T12:51:23;99573.47;;;11.24;98.37
74329;BME280;62749;51.982;5.916;2023-04-01T12:57:28;99586.59;;;11.25;98.21
74329;BME280;62749;51.982;5.916;2023-04-01T13:00:27;99589.88;;;11.29;98.16
74329;BME280;62749;51.982;5.916;2023-04-01T13:03:16;99587.34;;;11.27;98.15
74329;BME280;62749;51.982;5.916;2023-04-01T13:09:16;99599.09;;;11.36;97.94
74329;BME280;62749;51.982;5.916;2023-04-01T13:12:05;99610.06;;;11.44;97.98
74329;BME280;62749;51.982;5.916;2023-04-01T13:15:08;99607.94;;;11.49;97.88
74329;BME280;62749;51.982;5.916;2023-04-01T13:17:47;99609.38;;;11.55;97.75
74329;BME280;62749;51.982;5.916;2023-04-01T13:20:32;99614.28;;;11.47;97.69
74329;BME280;62749;51.982;5.916;2023-04-01T13:23:18;99617.66;;;11.63;98.00
74329;BME280;62749;51.982;5.916;2023-04-01T13:26:07;99626.03;;;11.70;97.49
74329;BME280;62749;51.982;5.916;2023-04-01T13:28:49;99629.44;;;11.72;97.23
74329;BME280;62749;51.982;5.916;2023-04-01T13:31:44;99633.81;;;11.86;97.63
74329;BME280;62749;51.982;5.916;2023-04-01T13:34:32;99634.69;;;11.87;97.82
74329;BME280;62749;51.982;5.916;2023-04-01T13:37:18;99638.78;;;11.91;97.53
74329;BME280;62749;51.982;5.916;2023-04-01T13:40:26;99641.22;;;12.08;97.60
74329;BME280;62749;51.982;5.916;2023-04-01T13:43:03;99651.25;;;12.03;97.13
74329;BME280;62749;51.982;5.916;2023-04-01T13:45:46;99655.72;;;11.88;96.97
74329;BME280;62749;51.982;5.916;2023-04-01T13:48:29;99667.25;;;11.87;97.14
74329;BME280;62749;51.982;5.916;2023-04-01T13:51:22;99662.38;;;11.81;97.20
74329;BME280;62749;51.982;5.916;2023-04-01T13:54:19;99673.00;;;11.66;96.82
74329;BME280;62749;51.982;5.916;2023-04-01T13:57:05;99674.78;;;11.66;96.65
74329;BME280;62749;51.982;5.916;2023-04-01T14:00:03;99671.88;;;11.56;96.38
74329;BME280;62749;51.982;5.916;2023-04-01T14:03:01;99679.63;;;11.59;97.06
74329;BME280;62749;51.982;5.916;2023-04-01T14:05:51;99687.56;;;11.59;96.86
74329;BME280;62749;51.982;5.916;2023-04-01T14:08:42;99687.56;;;11.59;96.79
74329;BME280;62749;51.982;5.916;2023-04-01T14:11:25;99693.72;;;11.60;96.53
74329;BME280;62749;51.982;5.916;2023-04-01T14:14:11;99691.91;;;11.60;96.67
74329;BME280;62749;51.982;5.916;2023-04-01T14:17:10;99704.00;;;11.64;96.59
74329;BME280;62749;51.982;5.916;2023-04-01T14:19:59;99708.66;;;11.61;96.69
74329;BME280;62749;51.982;5.916;2023-04-01T14:22:39;99711.94;;;11.64;96.64
74329;BME280;62749;51.982;5.916;2023-04-01T14:25:32;99709.28;;;11.64;96.71
74329;BME280;62749;51.982;5.916;2023-04-01T14:28:18;99713.72;;;11.64;96.69
74329;BME280;62749;51.982;5.916;2023-04-01T14:31:16;99724.22;;;11.65;96.93
74329;BME280;62749;51.982;5.916;2023-04-01T14:34:02;99728.75;;;11.63;96.71
74329;BME280;62749;51.982;5.916;2023-04-01T14:36:51;99731.47;;;11.62;97.06
74329;BME280;62749;51.982;5.916;2023-04-01T14:39:43;99736.34;;;11.55;97.15
74329;BME280;62749;51.982;5.916;2023-04-01T14:48:33;99741.78;;;11.66;97.50
74329;BME280;62749;51.982;5.916;2023-04-01T14:51:13;99739.53;;;11.60;96.72
74329;BME280;62749;51.982;5.916;2023-04-01T14:53:58;99736.53;;;11.52;95.42
74329;BME280;62749;51.982;5.916;2023-04-01T14:56:39;99748.03;;;11.65;95.36
74329;BME280;62749;51.982;5.916;2023-04-01T14:59:13;99748.88;;;11.66;95.81
74329;BME280;62749;51.982;5.916;2023-04-01T15:01:51;99753.31;;;11.65;95.72
74329;BME280;62749;51.982;5.916;2023-04-01T15:04:55;99759.84;;;11.60;95.36
74329;BME280;62749;51.982;5.916;2023-04-01T15:07:59;99771.91;;;11.64;95.92
74329;BME280;62749;51.982;5.916;2023-04-01T15:13:50;99777.78;;;11.55;95.06
74329;BME280;62749;51.982;5.916;2023-04-01T15:16:30;99786.09;;;11.63;95.44
74329;BME280;62749;51.982;5.916;2023-04-01T15:19:14;99780.78;;;11.63;95.46
74329;BME280;62749;51.982;5.916;2023-04-01T15:22:06;99791.00;;;11.69;95.90
74329;BME280;62749;51.982;5.916;2023-04-01T15:24:47;99793.19;;;11.77;96.43
74329;BME280;62749;51.982;5.916;2023-04-01T15:27:31;99796.00;;;11.74;96.48